createdAt,value
2022-09-26T00:00:16.646Z,0.00
2022-09-26T00:01:16.796Z,0.00
2022-09-26T00:02:16.641Z,0.00
2022-09-26T00:03:16.615Z,0.00
2022-09-26T00:04:16.577Z,0.00
2022-09-26T00:05:16.568Z,0.00
2022-09-26T00:06:16.546Z,0.00
2022-09-26T00:07:16.541Z,0.00
2022-09-26T00:08:16.538Z,0.00
2022-09-26T00:09:16.488Z,0.00
2022-09-26T00:10:16.563Z,0.00
2022-09-26T00:11:16.461Z,0.00
2022-09-26T00:12:16.432Z,0.00
2022-09-26T00:13:16.466Z,0.00
2022-09-26T00:14:16.422Z,0.00
2022-09-26T00:15:16.385Z,0.00
2022-09-26T00:16:16.405Z,0.00
2022-09-26T00:17:16.346Z,0.00
2022-09-26T00:18:17.383Z,0.00
2022-09-26T00:19:16.319Z,0.00
2022-09-26T00:20:16.308Z,0.00
2022-09-26T00:21:16.283Z,0.00
2022-09-26T00:22:16.280Z,0.00
2022-09-26T00:23:16.290Z,0.00
2022-09-26T00:24:16.250Z,0.00
2022-09-26T00:25:16.206Z,0.00
2022-09-26T00:26:17.193Z,0.00
2022-09-26T00:27:16.192Z,0.00
2022-09-26T00:28:16.219Z,0.00
2022-09-26T00:29:16.420Z,0.00
2022-09-26T00:30:16.137Z,0.00
2022-09-26T00:31:16.264Z,0.00
2022-09-26T00:32:16.148Z,0.00
2022-09-26T00:33:16.128Z,0.00
2022-09-26T00:34:16.076Z,0.00
2022-09-26T00:35:16.051Z,0.00
2022-09-26T00:36:16.052Z,0.00
2022-09-26T00:37:16.029Z,0.00
2022-09-26T00:38:16.030Z,0.00
2022-09-26T00:39:16.092Z,0.00
2022-09-26T00:40:16.000Z,0.00
2022-09-26T00:41:15.970Z,0.00
2022-09-26T00:42:15.927Z,0.00
2022-09-26T00:43:15.953Z,0.00
2022-09-26T00:44:15.907Z,0.00
2022-09-26T00:45:15.871Z,0.00
2022-09-26T00:46:15.957Z,0.00
2022-09-26T00:47:15.838Z,0.00
2022-09-26T00:48:15.861Z,0.00
2022-09-26T00:49:15.805Z,0.00
2022-09-26T00:50:15.800Z,0.00
2022-09-26T00:51:15.785Z,0.00
2022-09-26T00:52:15.773Z,0.00
2022-09-26T00:53:15.774Z,0.00
2022-09-26T00:54:15.821Z,0.00
2022-09-26T00:55:15.710Z,0.00
2022-09-26T00:56:15.698Z,0.00
2022-09-26T00:57:15.684Z,0.00
2022-09-26T00:58:15.701Z,0.00
2022-09-26T00:59:15.786Z,0.00
2022-09-26T01:00:15.620Z,0.00
2022-09-26T01:01:15.807Z,0.00
2022-09-26T01:02:15.756Z,0.00
2022-09-26T01:03:15.631Z,0.00
2022-09-26T01:04:15.563Z,0.00
2022-09-26T01:05:15.553Z,0.00
2022-09-26T01:06:15.530Z,0.00
2022-09-26T01:07:15.509Z,0.00
2022-09-26T01:08:15.545Z,0.00
2022-09-26T01:09:15.711Z,0.00
2022-09-26T01:10:15.484Z,0.00
2022-09-26T01:11:17.227Z,0.00
2022-09-26T01:12:16.430Z,0.00
2022-09-26T01:13:15.453Z,0.00
2022-09-26T01:14:15.407Z,0.00
2022-09-26T01:15:15.368Z,0.00
2022-09-26T01:16:15.524Z,0.00
2022-09-26T01:17:15.331Z,0.00
2022-09-26T01:18:15.358Z,0.00
2022-09-26T01:19:15.334Z,0.00
2022-09-26T01:20:15.294Z,0.00
2022-09-26T01:21:15.358Z,0.00
2022-09-26T01:22:15.252Z,0.00
2022-09-26T01:23:15.262Z,0.00
2022-09-26T01:24:15.214Z,0.00
2022-09-26T01:25:15.242Z,0.00
2022-09-26T01:26:15.193Z,0.00
2022-09-26T01:27:15.279Z,0.00
2022-09-26T01:28:15.166Z,0.00
2022-09-26T01:29:15.206Z,0.00
2022-09-26T01:30:15.122Z,0.00
2022-09-26T01:31:15.309Z,0.00
2022-09-26T01:32:15.087Z,0.00
2022-09-26T01:33:15.112Z,0.00
2022-09-26T01:34:15.049Z,0.00
2022-09-26T01:35:15.037Z,0.00
2022-09-26T01:36:15.014Z,0.00
2022-09-26T01:37:15.000Z,0.00
2022-09-26T01:38:15.054Z,0.00
2022-09-26T01:39:15.014Z,0.00
2022-09-26T01:40:14.961Z,0.00
2022-09-26T01:41:14.945Z,0.00
2022-09-26T01:42:14.910Z,0.00
2022-09-26T01:43:14.914Z,0.00
2022-09-26T01:44:14.859Z,0.00
2022-09-26T01:45:14.852Z,0.00
2022-09-26T01:46:14.857Z,0.00
2022-09-26T01:47:14.819Z,0.00
2022-09-26T01:48:14.932Z,0.00
2022-09-26T01:49:15.005Z,0.00
2022-09-26T01:50:14.777Z,0.00
2022-09-26T01:51:14.764Z,0.00
2022-09-26T01:52:14.742Z,0.00
2022-09-26T01:53:14.749Z,0.00
2022-09-26T01:54:14.703Z,0.00
2022-09-26T01:55:14.671Z,0.00
2022-09-26T01:56:14.697Z,0.00
2022-09-26T01:57:14.643Z,0.00
2022-09-26T01:58:14.669Z,0.00
2022-09-26T01:59:14.693Z,0.00
2022-09-26T02:00:14.614Z,0.00
2022-09-26T02:01:14.711Z,0.00
2022-09-26T02:02:14.607Z,0.00
2022-09-26T02:03:15.591Z,0.00
2022-09-26T02:04:14.522Z,0.00
2022-09-26T02:05:14.508Z,0.00
2022-09-26T02:06:14.497Z,0.00
2022-09-26T02:07:14.472Z,0.00
2022-09-26T02:08:14.518Z,0.00
2022-09-26T02:09:14.548Z,0.00
2022-09-26T02:10:14.424Z,0.00
2022-09-26T02:11:14.410Z,0.00
2022-09-26T02:12:14.417Z,0.00
2022-09-26T02:13:14.432Z,0.00
2022-09-26T02:14:14.375Z,0.00
2022-09-26T02:15:14.333Z,0.00
2022-09-26T02:16:14.344Z,0.00
2022-09-26T02:17:14.325Z,0.00
2022-09-26T02:18:14.317Z,0.00
2022-09-26T02:19:14.392Z,0.00
2022-09-26T02:20:14.241Z,0.00
2022-09-26T02:21:14.235Z,0.00
2022-09-26T02:22:14.252Z,0.00
2022-09-26T02:23:14.221Z,0.00
2022-09-26T02:24:14.174Z,0.00
2022-09-26T02:25:14.162Z,0.00
2022-09-26T02:26:14.146Z,0.00
2022-09-26T02:27:14.124Z,0.00
2022-09-26T02:28:14.172Z,0.00
2022-09-26T02:29:14.186Z,0.00
2022-09-26T02:30:14.083Z,0.00
2022-09-26T02:31:14.048Z,0.00
2022-09-26T02:32:14.106Z,0.00
2022-09-26T02:33:14.060Z,0.00
2022-09-26T02:34:14.012Z,0.00
2022-09-26T02:35:13.996Z,0.00
2022-09-26T02:36:13.979Z,0.00
2022-09-26T02:37:13.973Z,0.00
2022-09-26T02:38:13.989Z,0.00
2022-09-26T02:39:14.054Z,0.00
2022-09-26T02:40:13.926Z,0.00
2022-09-26T02:41:13.880Z,0.00
2022-09-26T02:42:13.860Z,0.00
2022-09-26T02:43:13.884Z,0.00
2022-09-26T02:44:13.881Z,0.00
2022-09-26T02:45:13.833Z,0.00
2022-09-26T02:46:13.898Z,0.00
2022-09-26T02:47:13.790Z,0.00
2022-09-26T02:48:13.796Z,0.00
2022-09-26T02:49:13.849Z,0.00
2022-09-26T02:50:13.731Z,0.00
2022-09-26T02:51:13.721Z,0.00
2022-09-26T02:52:13.720Z,0.00
2022-09-26T02:53:13.726Z,0.00
2022-09-26T02:54:13.689Z,0.00
2022-09-26T02:55:13.667Z,0.00
2022-09-26T02:56:13.646Z,0.00
2022-09-26T02:57:13.621Z,0.00
2022-09-26T02:58:13.665Z,0.00
2022-09-26T02:59:13.710Z,0.00
2022-09-26T03:00:13.573Z,0.00
2022-09-26T03:01:13.604Z,0.00
2022-09-26T03:02:13.537Z,0.00
2022-09-26T03:03:13.542Z,0.00
2022-09-26T03:04:13.535Z,0.00
2022-09-26T03:05:13.491Z,0.00
2022-09-26T03:06:14.456Z,0.00
2022-09-26T03:07:13.436Z,0.00
2022-09-26T03:08:13.445Z,0.00
2022-09-26T03:09:13.491Z,0.00
2022-09-26T03:10:13.383Z,0.00
2022-09-26T03:11:13.412Z,0.00
2022-09-26T03:12:13.361Z,0.00
2022-09-26T03:13:13.367Z,0.00
2022-09-26T03:14:13.320Z,0.00
2022-09-26T03:15:13.409Z,0.00
2022-09-26T03:16:13.313Z,0.00
2022-09-26T03:17:13.277Z,0.00
2022-09-26T03:18:13.246Z,0.00
2022-09-26T03:19:13.337Z,0.00
2022-09-26T03:20:13.242Z,0.00
2022-09-26T03:21:13.203Z,0.00
2022-09-26T03:22:13.181Z,0.00
2022-09-26T03:23:13.170Z,0.00
2022-09-26T03:24:13.175Z,0.00
2022-09-26T03:25:13.133Z,0.00
2022-09-26T03:26:13.110Z,0.00
2022-09-26T03:27:13.100Z,0.00
2022-09-26T03:28:13.094Z,0.00
2022-09-26T03:29:13.164Z,0.00
2022-09-26T03:30:13.064Z,0.00
2022-09-26T03:31:13.105Z,0.00
2022-09-26T03:32:13.089Z,0.00
2022-09-26T03:33:12.994Z,0.00
2022-09-26T03:34:13.010Z,0.00
2022-09-26T03:35:12.957Z,0.00
2022-09-26T03:36:12.945Z,0.00
2022-09-26T03:37:12.922Z,0.00
2022-09-26T03:38:14.541Z,0.00
2022-09-26T03:39:14.031Z,0.00
2022-09-26T03:40:12.998Z,0.00
2022-09-26T03:41:12.870Z,0.00
2022-09-26T03:42:12.853Z,0.00
2022-09-26T03:43:12.844Z,0.00
2022-09-26T03:44:12.860Z,0.00
2022-09-26T03:45:12.808Z,0.00
2022-09-26T03:46:12.905Z,0.00
2022-09-26T03:47:12.774Z,0.00
2022-09-26T03:48:12.735Z,0.00
2022-09-26T03:49:12.786Z,0.00
2022-09-26T03:50:12.706Z,0.00
2022-09-26T03:51:12.710Z,0.00
2022-09-26T03:52:12.673Z,0.00
2022-09-26T03:53:12.702Z,0.00
2022-09-26T03:54:12.636Z,0.00
2022-09-26T03:55:12.625Z,0.00
2022-09-26T03:56:12.607Z,0.00
2022-09-26T03:57:12.580Z,0.00
2022-09-26T03:58:12.599Z,0.00
2022-09-26T03:59:12.649Z,0.00
2022-09-26T04:00:12.669Z,0.00
2022-09-26T04:01:12.602Z,0.00
2022-09-26T04:02:12.614Z,0.00
2022-09-26T04:03:12.527Z,0.00
2022-09-26T04:04:12.483Z,0.00
2022-09-26T04:05:12.441Z,0.00
2022-09-26T04:06:12.431Z,0.00
2022-09-26T04:07:12.406Z,0.00
2022-09-26T04:08:12.447Z,0.00
2022-09-26T04:09:16.755Z,0.00
2022-09-26T04:10:13.354Z,0.00
2022-09-26T04:11:12.348Z,0.00
2022-09-26T04:12:12.331Z,0.00
2022-09-26T04:13:23.567Z,0.00
2022-09-26T04:14:14.298Z,0.00
2022-09-26T04:15:12.298Z,0.00
2022-09-26T04:16:12.291Z,0.00
2022-09-26T04:17:12.248Z,0.00
2022-09-26T04:18:12.319Z,0.00
2022-09-26T04:19:12.295Z,0.00
2022-09-26T04:20:12.191Z,0.00
2022-09-26T04:21:12.188Z,0.00
2022-09-26T04:22:12.166Z,0.00
2022-09-26T04:23:12.186Z,0.00
2022-09-26T04:24:12.128Z,0.00
2022-09-26T04:25:12.109Z,0.00
2022-09-26T04:26:12.107Z,0.00
2022-09-26T04:27:12.068Z,0.00
2022-09-26T04:28:12.084Z,0.00
2022-09-26T04:29:12.127Z,0.00
2022-09-26T04:30:12.030Z,0.00
2022-09-26T04:31:12.051Z,0.00
2022-09-26T04:32:12.018Z,0.00
2022-09-26T04:33:11.972Z,0.00
2022-09-26T04:34:11.986Z,0.00
2022-09-26T04:35:11.950Z,0.00
2022-09-26T04:36:11.930Z,0.00
2022-09-26T04:37:11.927Z,0.00
2022-09-26T04:38:11.943Z,0.00
2022-09-26T04:39:11.964Z,0.00
2022-09-26T04:40:11.898Z,0.00
2022-09-26T04:41:11.901Z,0.00
2022-09-26T04:42:11.825Z,0.00
2022-09-26T04:43:11.830Z,0.00
2022-09-26T04:44:11.832Z,0.00
2022-09-26T04:45:11.779Z,0.00
2022-09-26T04:46:11.837Z,0.00
2022-09-26T04:47:11.740Z,0.00
2022-09-26T04:48:11.754Z,0.00
2022-09-26T04:49:11.725Z,0.00
2022-09-26T04:50:11.691Z,0.00
2022-09-26T04:51:11.675Z,0.00
2022-09-26T04:52:11.643Z,0.00
2022-09-26T04:53:11.665Z,0.00
2022-09-26T04:54:11.613Z,0.00
2022-09-26T04:55:11.599Z,0.00
2022-09-26T04:56:11.578Z,0.00
2022-09-26T04:57:14.791Z,0.00
2022-09-26T04:58:12.582Z,0.00
2022-09-26T04:59:11.642Z,0.00
2022-09-26T05:00:11.510Z,0.00
2022-09-26T05:01:11.555Z,0.00
2022-09-26T05:02:11.548Z,0.00
2022-09-26T05:03:11.495Z,0.00
2022-09-26T05:04:11.457Z,5.62
2022-09-26T05:05:11.430Z,5.62
2022-09-26T05:06:11.413Z,5.62
2022-09-26T05:07:11.384Z,11.25
2022-09-26T05:08:11.409Z,11.25
2022-09-26T05:09:11.499Z,11.25
2022-09-26T05:10:11.345Z,11.25
2022-09-26T05:11:11.326Z,11.25
2022-09-26T05:12:11.316Z,16.88
2022-09-26T05:13:11.324Z,16.88
2022-09-26T05:14:11.280Z,16.88
2022-09-26T05:15:11.255Z,22.50
2022-09-26T05:16:11.272Z,22.50
2022-09-26T05:17:11.219Z,22.50
2022-09-26T05:18:11.227Z,28.12
2022-09-26T05:19:11.243Z,28.12
2022-09-26T05:20:11.185Z,28.12
2022-09-26T05:21:11.166Z,28.12
2022-09-26T05:22:11.137Z,28.12
2022-09-26T05:23:11.158Z,33.75
2022-09-26T05:24:11.105Z,39.38
2022-09-26T05:25:11.110Z,45.00
2022-09-26T05:26:11.070Z,50.62
2022-09-26T05:27:11.060Z,56.25
2022-09-26T05:28:11.081Z,61.88
2022-09-26T05:29:11.113Z,61.88
2022-09-26T05:30:11.009Z,67.50
2022-09-26T05:31:11.052Z,73.12
2022-09-26T05:32:11.085Z,84.38
2022-09-26T05:33:10.958Z,95.62
2022-09-26T05:34:14.346Z,101.25
2022-09-26T05:35:11.902Z,101.25
2022-09-26T05:36:10.904Z,101.25
2022-09-26T05:37:10.881Z,101.25
2022-09-26T05:38:10.922Z,101.25
2022-09-26T05:39:10.833Z,95.62
2022-09-26T05:40:10.871Z,95.62
2022-09-26T05:41:10.806Z,163.12
2022-09-26T05:42:10.791Z,376.88
2022-09-26T05:43:10.770Z,540.00
2022-09-26T05:44:10.807Z,646.88
2022-09-26T05:45:10.739Z,478.12
2022-09-26T05:46:10.720Z,168.75
2022-09-26T05:47:10.767Z,202.50
2022-09-26T05:48:10.735Z,247.50
2022-09-26T05:49:10.656Z,433.12
2022-09-26T05:50:11.644Z,483.75
2022-09-26T05:51:10.655Z,202.50
2022-09-26T05:52:10.654Z,118.12
2022-09-26T05:53:10.649Z,106.88
2022-09-26T05:54:10.621Z,112.50
2022-09-26T05:55:10.576Z,101.25
2022-09-26T05:56:12.775Z,90.00
2022-09-26T05:57:11.540Z,78.75
2022-09-26T05:58:10.548Z,67.50
2022-09-26T05:59:10.531Z,61.88
2022-09-26T06:00:10.476Z,61.88
2022-09-26T06:01:10.575Z,61.88
2022-09-26T06:02:10.456Z,61.88
2022-09-26T06:03:10.431Z,67.50
2022-09-26T06:04:10.439Z,73.12
2022-09-26T06:05:10.390Z,78.75
2022-09-26T06:06:10.390Z,95.62
2022-09-26T06:07:10.363Z,106.88
2022-09-26T06:08:10.372Z,112.50
2022-09-26T06:09:10.425Z,118.12
2022-09-26T06:10:10.325Z,129.38
2022-09-26T06:11:10.296Z,129.38
2022-09-26T06:12:10.286Z,140.62
2022-09-26T06:13:10.260Z,151.88
2022-09-26T06:14:10.273Z,163.12
2022-09-26T06:15:10.223Z,174.38
2022-09-26T06:16:10.250Z,185.62
2022-09-26T06:17:10.221Z,202.50
2022-09-26T06:18:10.171Z,219.38
2022-09-26T06:19:10.199Z,225.00
2022-09-26T06:20:10.135Z,236.25
2022-09-26T06:21:10.157Z,241.88
2022-09-26T06:22:10.113Z,247.50
2022-09-26T06:23:10.103Z,247.50
2022-09-26T06:24:10.110Z,253.12
2022-09-26T06:25:10.049Z,253.12
2022-09-26T06:26:10.053Z,258.75
2022-09-26T06:27:10.044Z,264.38
2022-09-26T06:28:10.011Z,270.00
2022-09-26T06:29:10.018Z,281.25
2022-09-26T06:30:09.965Z,303.75
2022-09-26T06:31:10.035Z,337.50
2022-09-26T06:32:10.056Z,376.88
2022-09-26T06:33:09.947Z,421.88
2022-09-26T06:34:09.975Z,450.00
2022-09-26T06:35:09.885Z,478.12
2022-09-26T06:36:09.878Z,517.50
2022-09-26T06:37:09.844Z,1136.25
2022-09-26T06:38:09.840Z,1850.62
2022-09-26T06:39:09.925Z,1996.88
2022-09-26T06:40:09.800Z,1473.75
2022-09-26T06:41:09.772Z,1040.62
2022-09-26T06:42:09.774Z,1080.00
2022-09-26T06:43:09.758Z,1141.88
2022-09-26T06:44:09.759Z,669.38
2022-09-26T06:45:09.782Z,461.25
2022-09-26T06:46:09.691Z,421.88
2022-09-26T06:47:09.695Z,405.00
2022-09-26T06:48:09.662Z,393.75
2022-09-26T06:49:09.772Z,388.12
2022-09-26T06:50:09.625Z,399.38
2022-09-26T06:51:09.632Z,410.62
2022-09-26T06:52:09.590Z,416.25
2022-09-26T06:53:09.573Z,433.12
2022-09-26T06:54:09.669Z,461.25
2022-09-26T06:55:09.591Z,506.25
2022-09-26T06:56:09.556Z,562.50
2022-09-26T06:57:14.191Z,630.00
2022-09-26T06:58:11.556Z,697.50
2022-09-26T06:59:09.540Z,894.38
2022-09-26T07:00:09.459Z,894.38
2022-09-26T07:01:09.658Z,1524.38
2022-09-26T07:02:09.609Z,1271.25
2022-09-26T07:03:09.434Z,1957.50
2022-09-26T07:04:09.427Z,1659.38
2022-09-26T07:05:09.374Z,1957.50
2022-09-26T07:06:09.365Z,1681.88
2022-09-26T07:07:09.335Z,1237.50
2022-09-26T07:08:09.309Z,1108.12
2022-09-26T07:09:12.278Z,1119.38
2022-09-26T07:10:10.306Z,1406.25
2022-09-26T07:11:31.157Z,2131.88
2022-09-26T07:12:15.556Z,2593.12
2022-09-26T07:13:10.338Z,2716.88
2022-09-26T07:14:09.260Z,3459.38
2022-09-26T07:15:09.195Z,3785.62
2022-09-26T07:16:09.272Z,3633.75
2022-09-26T07:17:09.304Z,3600.00
2022-09-26T07:18:09.169Z,3543.75
2022-09-26T07:19:09.245Z,3397.50
2022-09-26T07:20:09.124Z,3532.50
2022-09-26T07:21:09.170Z,3830.62
2022-09-26T07:22:09.083Z,3881.25
2022-09-26T07:23:09.065Z,3903.75
2022-09-26T07:24:09.085Z,3881.25
2022-09-26T07:25:09.024Z,4331.25
2022-09-26T07:26:09.030Z,4685.62
2022-09-26T07:27:09.029Z,4573.12
2022-09-26T07:28:08.980Z,3864.38
2022-09-26T07:29:09.011Z,3549.38
2022-09-26T07:30:08.958Z,3026.25
2022-09-26T07:31:08.986Z,3363.75
2022-09-26T07:32:08.914Z,3847.50
2022-09-26T07:33:08.899Z,4561.88
2022-09-26T07:34:09.035Z,3965.62
2022-09-26T07:35:08.896Z,2750.62
2022-09-26T07:36:08.868Z,2784.38
2022-09-26T07:37:08.834Z,3093.75
2022-09-26T07:38:08.808Z,3076.88
2022-09-26T07:39:08.930Z,2981.25
2022-09-26T07:40:08.769Z,2413.12
2022-09-26T07:41:08.765Z,2525.62
2022-09-26T07:42:08.757Z,1811.25
2022-09-26T07:43:19.537Z,928.12
2022-09-26T07:45:28.039Z,1456.88
2022-09-26T07:46:10.767Z,2396.25
2022-09-26T07:47:08.694Z,2638.12
2022-09-26T07:48:08.652Z,2604.38
2022-09-26T07:49:08.660Z,3982.50
2022-09-26T07:50:08.624Z,4179.38
2022-09-26T07:51:09.474Z,4179.38
2022-09-26T07:52:09.596Z,4336.88
2022-09-26T07:53:08.572Z,4258.12
2022-09-26T07:54:08.660Z,4606.88
2022-09-26T07:55:08.543Z,1805.62
2022-09-26T07:56:08.512Z,4736.25
2022-09-26T07:57:08.516Z,4944.38
2022-09-26T07:58:08.510Z,1845.00
2022-09-26T07:59:08.513Z,4331.25
2022-09-26T08:00:08.492Z,1867.50
2022-09-26T08:01:08.445Z,1411.88
2022-09-26T08:02:08.624Z,1091.25
2022-09-26T08:03:08.522Z,832.50
2022-09-26T08:04:08.443Z,534.38
2022-09-26T08:05:08.418Z,371.25
2022-09-26T08:06:08.369Z,247.50
2022-09-26T08:07:08.353Z,208.12
2022-09-26T08:08:08.339Z,196.88
2022-09-26T08:09:08.338Z,157.50
2022-09-26T08:10:08.302Z,157.50
2022-09-26T08:11:08.279Z,163.12
2022-09-26T08:12:08.264Z,157.50
2022-09-26T08:13:08.239Z,151.88
2022-09-26T08:14:08.319Z,151.88
2022-09-26T08:15:08.208Z,168.75
2022-09-26T08:16:08.254Z,213.75
2022-09-26T08:17:11.963Z,241.88
2022-09-26T08:18:10.151Z,236.25
2022-09-26T08:19:08.388Z,264.38
2022-09-26T08:20:08.133Z,241.88
2022-09-26T08:21:08.180Z,225.00
2022-09-26T08:22:08.082Z,174.38
2022-09-26T08:23:08.081Z,253.12
2022-09-26T08:24:08.079Z,421.88
2022-09-26T08:25:08.050Z,478.12
2022-09-26T08:26:08.008Z,551.25
2022-09-26T08:27:07.996Z,663.75
2022-09-26T08:28:07.977Z,4539.38
2022-09-26T08:29:07.978Z,3420.00
2022-09-26T08:30:07.936Z,1777.50
2022-09-26T08:31:07.942Z,4618.12
2022-09-26T08:32:07.898Z,5045.62
2022-09-26T08:33:07.892Z,1625.62
2022-09-26T08:34:07.942Z,1507.50
2022-09-26T08:35:07.851Z,1260.00
2022-09-26T08:36:07.827Z,810.00
2022-09-26T08:37:07.842Z,866.25
2022-09-26T08:38:07.805Z,1445.62
2022-09-26T08:39:07.820Z,2261.25
2022-09-26T08:40:07.757Z,1479.38
2022-09-26T08:41:07.792Z,1215.00
2022-09-26T08:42:07.749Z,4100.62
2022-09-26T08:43:07.702Z,1282.50
2022-09-26T08:44:07.702Z,1366.88
2022-09-26T08:45:07.708Z,2531.25
2022-09-26T08:46:07.723Z,1265.62
2022-09-26T08:47:07.659Z,1434.38
2022-09-26T08:48:07.648Z,5743.12
2022-09-26T08:49:07.619Z,5293.12
2022-09-26T08:50:07.616Z,1659.38
2022-09-26T08:51:07.569Z,2160.00
2022-09-26T08:52:07.560Z,2053.12
2022-09-26T08:53:07.535Z,3920.62
2022-09-26T08:54:07.522Z,1935.00
2022-09-26T08:55:07.541Z,1861.88
2022-09-26T08:56:07.529Z,2036.25
2022-09-26T08:57:07.462Z,1406.25
2022-09-26T08:58:07.539Z,1445.62
2022-09-26T08:59:07.440Z,1260.00
2022-09-26T09:00:07.454Z,1220.62
2022-09-26T09:01:07.414Z,1260.00
2022-09-26T09:02:07.460Z,3071.25
2022-09-26T09:03:07.421Z,1693.12
2022-09-26T09:04:07.365Z,1968.75
2022-09-26T09:05:07.365Z,2261.25
2022-09-26T09:06:07.305Z,3892.50
2022-09-26T09:07:07.300Z,5731.88
2022-09-26T09:08:07.270Z,5630.62
2022-09-26T09:09:07.260Z,5011.88
2022-09-26T09:10:07.270Z,2176.88
2022-09-26T09:11:07.235Z,2165.62
2022-09-26T09:12:07.229Z,2896.88
2022-09-26T09:13:07.242Z,1918.12
2022-09-26T09:14:07.309Z,4584.38
2022-09-26T09:15:24.644Z,3065.62
2022-09-26T09:16:09.242Z,3735.00
2022-09-26T09:17:07.130Z,2379.38
2022-09-26T09:18:12.647Z,2244.38
2022-09-26T09:19:09.121Z,3999.38
2022-09-26T09:20:07.131Z,2829.38
2022-09-26T09:21:07.082Z,3211.88
2022-09-26T09:22:07.053Z,3746.25
2022-09-26T09:23:07.046Z,2379.38
2022-09-26T09:24:07.038Z,1816.88
2022-09-26T09:25:07.040Z,3093.75
2022-09-26T09:28:09.044Z,4224.38
2022-09-26T09:29:10.390Z,4432.50
2022-09-26T09:30:15.908Z,4393.12
2022-09-26T09:31:08.991Z,4291.88
2022-09-26T09:32:06.910Z,4725.00
2022-09-26T09:33:06.885Z,4483.12
2022-09-26T09:34:06.939Z,4466.25
2022-09-26T09:35:06.875Z,4854.38
2022-09-26T09:36:06.831Z,4820.62
2022-09-26T09:37:06.818Z,5298.75
2022-09-26T09:38:06.811Z,5343.75
2022-09-26T09:39:06.801Z,4978.12
2022-09-26T09:40:06.811Z,4663.12
2022-09-26T09:41:06.802Z,4708.12
2022-09-26T09:42:06.734Z,4466.25
2022-09-26T09:43:06.731Z,4213.12
2022-09-26T09:44:06.738Z,4196.25
2022-09-26T09:45:06.731Z,3757.50
2022-09-26T09:46:06.732Z,3453.75
2022-09-26T09:47:06.660Z,3600.00
2022-09-26T09:48:06.651Z,3706.88
2022-09-26T09:49:06.640Z,4156.88
2022-09-26T09:50:06.645Z,4123.12
2022-09-26T09:51:06.590Z,4072.50
2022-09-26T09:52:06.601Z,4089.38
2022-09-26T09:53:06.572Z,4179.38
2022-09-26T09:54:06.626Z,1957.50
2022-09-26T09:55:06.591Z,4196.25
2022-09-26T09:56:06.524Z,3858.75
2022-09-26T09:57:06.519Z,3920.62
2022-09-26T09:58:06.520Z,1996.88
2022-09-26T09:59:06.479Z,4168.12
2022-09-26T10:00:06.511Z,1968.75
2022-09-26T10:01:06.495Z,2486.25
2022-09-26T10:02:06.455Z,4584.38
2022-09-26T10:03:06.452Z,2649.38
2022-09-26T10:04:06.458Z,1361.25
2022-09-26T10:05:06.419Z,1980.00
2022-09-26T10:06:09.420Z,1310.62
2022-09-26T10:07:07.353Z,1586.25
2022-09-26T10:08:06.336Z,3526.88
2022-09-26T10:09:35.406Z,1406.25
2022-09-26T10:10:07.322Z,2992.50
2022-09-26T10:11:06.275Z,1620.00
2022-09-26T10:12:06.271Z,1063.12
2022-09-26T10:13:06.245Z,984.38
2022-09-26T10:14:06.290Z,922.50
2022-09-26T10:15:06.250Z,1546.88
2022-09-26T10:16:06.236Z,1220.62
2022-09-26T10:17:06.191Z,939.38
2022-09-26T10:18:24.005Z,1108.12
2022-09-26T10:19:08.152Z,945.00
2022-09-26T10:20:06.160Z,1181.25
2022-09-26T10:21:06.118Z,2593.12
2022-09-26T10:22:06.096Z,1243.12
2022-09-26T10:23:06.094Z,1158.75
2022-09-26T10:24:06.114Z,1001.25
2022-09-26T10:25:06.093Z,1136.25
2022-09-26T10:26:06.044Z,1665.00
2022-09-26T10:27:06.018Z,1282.50
2022-09-26T10:28:06.015Z,1006.88
2022-09-26T10:29:06.015Z,1057.50
2022-09-26T10:30:05.999Z,1310.62
2022-09-26T10:31:06.062Z,1063.12
2022-09-26T10:32:05.933Z,1445.62
2022-09-26T10:33:05.931Z,1327.50
2022-09-26T10:34:06.033Z,1040.62
2022-09-26T10:35:05.915Z,978.75
2022-09-26T10:36:05.956Z,787.50
2022-09-26T10:37:05.865Z,708.75
2022-09-26T10:38:05.836Z,613.12
2022-09-26T10:39:05.827Z,551.25
2022-09-26T10:40:05.836Z,528.75
2022-09-26T10:41:05.913Z,540.00
2022-09-26T10:42:05.774Z,517.50
2022-09-26T10:43:05.760Z,466.88
2022-09-26T10:44:05.838Z,438.75
2022-09-26T10:45:05.775Z,438.75
2022-09-26T10:46:05.767Z,511.88
2022-09-26T10:47:05.780Z,511.88
2022-09-26T10:48:05.692Z,438.75
2022-09-26T10:49:06.658Z,365.62
2022-09-26T10:50:05.670Z,298.12
2022-09-26T10:51:05.673Z,253.12
2022-09-26T10:52:05.601Z,225.00
2022-09-26T10:53:05.578Z,219.38
2022-09-26T10:54:05.569Z,230.62
2022-09-26T10:55:05.584Z,264.38
2022-09-26T10:56:05.538Z,455.62
2022-09-26T10:57:05.563Z,461.25
2022-09-26T10:58:07.918Z,540.00
2022-09-26T10:59:06.482Z,562.50
2022-09-26T11:00:05.480Z,720.00
2022-09-26T11:01:05.489Z,708.75
2022-09-26T11:02:05.485Z,630.00
2022-09-26T11:03:05.424Z,551.25
2022-09-26T11:04:05.456Z,427.50
2022-09-26T11:05:05.380Z,337.50
2022-09-26T11:06:05.387Z,281.25
2022-09-26T11:07:05.338Z,253.12
2022-09-26T11:08:05.314Z,225.00
2022-09-26T11:09:05.302Z,236.25
2022-09-26T11:10:05.281Z,264.38
2022-09-26T11:11:05.309Z,281.25
2022-09-26T11:12:05.297Z,286.88
2022-09-26T11:13:05.260Z,337.50
2022-09-26T11:14:05.219Z,540.00
2022-09-26T11:15:05.225Z,765.00
2022-09-26T11:16:05.244Z,883.12
2022-09-26T11:17:05.177Z,916.88
2022-09-26T11:18:05.144Z,894.38
2022-09-26T11:19:05.192Z,855.00
2022-09-26T11:20:05.115Z,855.00
2022-09-26T11:21:14.319Z,838.12
2022-09-26T11:22:08.381Z,810.00
2022-09-26T11:23:06.175Z,765.00
2022-09-26T11:24:05.064Z,703.12
2022-09-26T11:25:05.034Z,669.38
2022-09-26T11:26:05.052Z,708.75
2022-09-26T11:27:05.007Z,765.00
2022-09-26T11:28:04.992Z,787.50
2022-09-26T11:29:04.974Z,781.88
2022-09-26T11:30:05.129Z,753.75
2022-09-26T11:31:05.407Z,720.00
2022-09-26T11:32:04.933Z,691.88
2022-09-26T11:33:04.920Z,675.00
2022-09-26T11:34:05.004Z,669.38
2022-09-26T11:35:04.890Z,663.75
2022-09-26T11:36:04.922Z,691.88
2022-09-26T11:37:04.868Z,680.62
2022-09-26T11:38:04.861Z,708.75
2022-09-26T11:39:04.823Z,753.75
2022-09-26T11:40:08.762Z,736.88
2022-09-26T11:41:06.824Z,708.75
2022-09-26T11:42:04.764Z,675.00
2022-09-26T11:43:04.743Z,646.88
2022-09-26T11:44:04.761Z,607.50
2022-09-26T11:45:04.723Z,618.75
2022-09-26T11:46:04.779Z,607.50
2022-09-26T11:47:04.695Z,579.38
2022-09-26T11:48:04.675Z,562.50
2022-09-26T11:49:04.661Z,573.75
2022-09-26T11:50:04.693Z,568.12
2022-09-26T11:51:04.604Z,573.75
2022-09-26T11:52:04.596Z,635.62
2022-09-26T11:53:04.578Z,652.50
2022-09-26T11:54:04.567Z,596.25
2022-09-26T11:55:04.593Z,495.00
2022-09-26T11:56:04.529Z,455.62
2022-09-26T11:57:04.504Z,545.62
2022-09-26T11:58:04.500Z,607.50
2022-09-26T11:59:04.491Z,613.12
2022-09-26T12:00:04.498Z,590.62
2022-09-26T12:01:04.462Z,562.50
2022-09-26T12:02:04.429Z,534.38
2022-09-26T12:03:04.517Z,506.25
2022-09-26T12:04:04.547Z,500.62
2022-09-26T12:05:04.426Z,483.75
2022-09-26T12:06:04.359Z,444.38
2022-09-26T12:07:04.343Z,438.75
2022-09-26T12:08:04.327Z,438.75
2022-09-26T12:09:04.309Z,416.25
2022-09-26T12:10:04.323Z,416.25
2022-09-26T12:11:04.273Z,450.00
2022-09-26T12:12:04.295Z,483.75
2022-09-26T12:13:04.283Z,500.62
2022-09-26T12:14:04.231Z,495.00
2022-09-26T12:15:04.246Z,489.38
2022-09-26T12:16:04.244Z,495.00
2022-09-26T12:17:04.171Z,495.00
2022-09-26T12:18:04.165Z,483.75
2022-09-26T12:19:04.142Z,450.00
2022-09-26T12:20:04.147Z,433.12
2022-09-26T12:21:04.131Z,393.75
2022-09-26T12:22:04.095Z,365.62
2022-09-26T12:23:04.092Z,360.00
2022-09-26T12:24:04.098Z,382.50
2022-09-26T12:25:04.074Z,416.25
2022-09-26T12:26:04.035Z,444.38
2022-09-26T12:27:04.015Z,478.12
2022-09-26T12:28:03.990Z,478.12
2022-09-26T12:29:03.999Z,450.00
2022-09-26T12:30:03.996Z,416.25
2022-09-26T12:31:03.980Z,376.88
2022-09-26T12:32:03.959Z,354.38
2022-09-26T12:33:03.919Z,376.88
2022-09-26T12:34:03.883Z,371.25
2022-09-26T12:35:03.935Z,360.00
2022-09-26T12:36:03.850Z,360.00
2022-09-26T12:37:03.874Z,331.88
2022-09-26T12:38:03.833Z,309.38
2022-09-26T12:39:03.801Z,298.12
2022-09-26T12:40:03.826Z,303.75
2022-09-26T12:41:03.813Z,292.50
2022-09-26T12:42:03.767Z,303.75
2022-09-26T12:43:03.747Z,275.62
2022-09-26T12:44:03.726Z,230.62
2022-09-26T12:45:03.751Z,196.88
2022-09-26T12:46:03.732Z,202.50